sensor_id;sensor_type;location;lat;lon;timestamp;pressure;altitude;pressure_sealevel;temperature
24278;BMP280;12394;42.692;23.314;2022-11-10T00:01:27;95657.22;;;8.95
24278;BMP280;12394;42.692;23.314;2022-11-10T00:03:52;95659.41;;;8.92
24278;BMP280;12394;42.692;23.314;2022-11-10T00:06:18;95654.56;;;8.91
24278;BMP280;12394;42.692;23.314;2022-11-10T00:08:43;95657.16;;;8.91
24278;BMP280;12394;42.692;23.314;2022-11-10T00:11:09;95661.28;;;8.92
24278;BMP280;12394;42.692;23.314;2022-11-10T00:13:36;95661.56;;;8.83
24278;BMP280;12394;42.692;23.314;2022-11-10T00:16:20;95660.78;;;8.79
24278;BMP280;12394;42.692;23.314;2022-11-10T00:19:05;95656.97;;;8.73
24278;BMP280;12394;42.692;23.314;2022-11-10T00:21:30;95661.34;;;8.66
24278;BMP280;12394;42.692;23.314;2022-11-10T00:23:55;95657.97;;;8.62
24278;BMP280;12394;42.692;23.314;2022-11-10T00:26:21;95662.09;;;8.63
24278;BMP280;12394;42.692;23.314;2022-11-10T00:28:47;95657.22;;;8.61
24278;BMP280;12394;42.692;23.314;2022-11-10T00:31:12;95655.34;;;8.62
24278;BMP280;12394;42.692;23.314;2022-11-10T00:33:40;95662.38;;;8.58
24278;BMP280;12394;42.692;23.314;2022-11-10T00:36:06;95653.03;;;8.53
24278;BMP280;12394;42.692;23.314;2022-11-10T00:38:32;95643.66;;;8.48
24278;BMP280;12394;42.692;23.314;2022-11-10T00:40:58;95636.16;;;8.47
24278;BMP280;12394;42.692;23.314;2022-11-10T00:43:24;95633.16;;;8.45
24278;BMP280;12394;42.692;23.314;2022-11-10T00:45:49;95642.59;;;8.53
24278;BMP280;12394;42.692;23.314;2022-11-10T00:48:15;95632.94;;;8.57
24278;BMP280;12394;42.692;23.314;2022-11-10T00:50:40;95642.97;;;8.55
24278;BMP280;12394;42.692;23.314;2022-11-10T00:53:06;95640.38;;;8.55
24278;BMP280;12394;42.692;23.314;2022-11-10T00:55:31;95638.50;;;8.56
24278;BMP280;12394;42.692;23.314;2022-11-10T00:57:56;95640.38;;;8.55
24278;BMP280;12394;42.692;23.314;2022-11-10T01:00:22;95633.63;;;8.54
24278;BMP280;12394;42.692;23.314;2022-11-10T01:02:47;95631.41;;;8.53
24278;BMP280;12394;42.692;23.314;2022-11-10T01:05:13;95633.56;;;8.47
24278;BMP280;12394;42.692;23.314;2022-11-10T01:07:38;95631.25;;;8.42
24278;BMP280;12394;42.692;23.314;2022-11-10T01:10:04;95626.47;;;8.44
24278;BMP280;12394;42.692;23.314;2022-11-10T01:12:30;95624.53;;;8.41
24278;BMP280;12394;42.692;23.314;2022-11-10T01:14:56;95629.41;;;8.42
24278;BMP280;12394;42.692;23.314;2022-11-10T01:17:21;95627.53;;;8.39
24278;BMP280;12394;42.692;23.314;2022-11-10T01:19:47;95609.94;;;8.33
24278;BMP280;12394;42.692;23.314;2022-11-10T01:22:12;95631.69;;;8.44
24278;BMP280;12394;42.692;23.314;2022-11-10T01:24:37;95609.44;;;8.27
24278;BMP280;12394;42.692;23.314;2022-11-10T01:27:03;95624.91;;;8.39
24278;BMP280;12394;42.692;23.314;2022-11-10T01:29:28;95618.53;;;8.37
24278;BMP280;12394;42.692;23.314;2022-11-10T01:31:54;95635.72;;;8.41
24278;BMP280;12394;42.692;23.314;2022-11-10T01:34:19;95631.25;;;8.42
24278;BMP280;12394;42.692;23.314;2022-11-10T01:36:45;95614.78;;;8.34
24278;BMP280;12394;42.692;23.314;2022-11-10T01:39:10;95617.84;;;8.40
24278;BMP280;12394;42.692;23.314;2022-11-10T01:41:36;95621.16;;;8.37
24278;BMP280;12394;42.692;23.314;2022-11-10T01:44:16;95625.25;;;8.38
24278;BMP280;12394;42.692;23.314;2022-11-10T01:46:42;95627.53;;;8.39
24278;BMP280;12394;42.692;23.314;2022-11-10T01:49:08;95621.56;;;8.39
24278;BMP280;12394;42.692;23.314;2022-11-10T01:51:37;95628.63;;;8.38
24278;BMP280;12394;42.692;23.314;2022-11-10T01:54:08;95622.22;;;8.32
24278;BMP280;12394;42.692;23.314;2022-11-10T01:56:40;95615.03;;;8.26
24278;BMP280;12394;42.692;23.314;2022-11-10T01:59:12;95623.59;;;8.26
24278;BMP280;12394;42.692;23.314;2022-11-10T02:01:39;95623.91;;;8.21
24278;BMP280;12394;42.692;23.314;2022-11-10T02:04:07;95591.22;;;7.97
24278;BMP280;12394;42.692;23.314;2022-11-10T02:06:37;95623.47;;;8.16
24278;BMP280;12394;42.692;23.314;2022-11-10T02:09:03;95623.84;;;8.18
24278;BMP280;12394;42.692;23.314;2022-11-10T02:11:29;95621.16;;;8.11
24278;BMP280;12394;42.692;23.314;2022-11-10T02:13:56;95634.16;;;8.07
24278;BMP280;12394;42.692;23.314;2022-11-10T02:16:22;95629.69;;;8.08
24278;BMP280;12394;42.692;23.314;2022-11-10T02:18:47;95629.28;;;8.05
24278;BMP280;12394;42.692;23.314;2022-11-10T02:21:15;95614.66;;;7.97
24278;BMP280;12394;42.692;23.314;2022-11-10T02:23:44;95636.72;;;8.03
24278;BMP280;12394;42.692;23.314;2022-11-10T02:26:10;95629.53;;;7.97
24278;BMP280;12394;42.692;23.314;2022-11-10T02:28:36;95647.81;;;8.00
24278;BMP280;12394;42.692;23.314;2022-11-10T02:31:03;95627.91;;;7.85
24278;BMP280;12394;42.692;23.314;2022-11-10T02:33:29;95650.69;;;7.92
24278;BMP280;12394;42.692;23.314;2022-11-10T02:35:54;95642.03;;;7.84
24278;BMP280;12394;42.692;23.314;2022-11-10T02:38:20;95631.81;;;7.72
24278;BMP280;12394;42.692;23.314;2022-11-10T02:40:47;95644.88;;;7.76
24278;BMP280;12394;42.692;23.314;2022-11-10T02:43:16;95629.50;;;7.67
24278;BMP280;12394;42.692;23.314;2022-11-10T02:45:42;95653.44;;;7.76
24278;BMP280;12394;42.692;23.314;2022-11-10T02:48:08;95651.19;;;7.75
24278;BMP280;12394;42.692;23.314;2022-11-10T02:50:34;95648.91;;;7.73
24278;BMP280;12394;42.692;23.314;2022-11-10T02:52:59;95654.13;;;7.73
24278;BMP280;12394;42.692;23.314;2022-11-10T02:55:25;95637.69;;;7.69
24278;BMP280;12394;42.692;23.314;2022-11-10T02:57:50;95650.03;;;7.72
24278;BMP280;12394;42.692;23.314;2022-11-10T05:30:49;95693.06;;;7.89
24278;BMP280;12394;42.692;23.314;2022-11-10T05:33:15;95701.41;;;7.98
24278;BMP280;12394;42.692;23.314;2022-11-10T05:35:40;95700.81;;;8.08
24278;BMP280;12394;42.692;23.314;2022-11-10T05:38:05;95693.38;;;8.10
24278;BMP280;12394;42.692;23.314;2022-11-10T05:40:31;95703.59;;;8.22
24278;BMP280;12394;42.692;23.314;2022-11-10T05:42:57;95707.75;;;8.27
24278;BMP280;12394;42.692;23.314;2022-11-10T05:45:25;95706.78;;;8.35
24278;BMP280;12394;42.692;23.314;2022-11-10T05:47:51;95703.38;;;8.31
24278;BMP280;12394;42.692;23.314;2022-11-10T05:50:18;95717.00;;;8.47
24278;BMP280;12394;42.692;23.314;2022-11-10T05:52:45;95725.38;;;8.60
24278;BMP280;12394;42.692;23.314;2022-11-10T05:55:12;95719.13;;;8.68
24278;BMP280;12394;42.692;23.314;2022-11-10T05:57:38;95726.34;;;8.78
24278;BMP280;12394;42.692;23.314;2022-11-10T06:00:06;95715.28;;;8.88
24278;BMP280;12394;42.692;23.314;2022-11-10T06:02:31;95731.38;;;8.93
24278;BMP280;12394;42.692;23.314;2022-11-10T06:04:57;95732.78;;;9.17
24278;BMP280;12394;42.692;23.314;2022-11-10T06:07:22;95733.44;;;9.44
24278;BMP280;12394;42.692;23.314;2022-11-10T06:09:47;95744.41;;;9.64
24278;BMP280;12394;42.692;23.314;2022-11-10T06:12:13;95751.88;;;10.06
24278;BMP280;12394;42.692;23.314;2022-11-10T06:14:39;95747.22;;;10.25
24278;BMP280;12394;42.692;23.314;2022-11-10T06:17:05;95752.91;;;10.38
24278;BMP280;12394;42.692;23.314;2022-11-10T06:19:30;95755.22;;;10.50
24278;BMP280;12394;42.692;23.314;2022-11-10T06:21:56;95753.03;;;10.63
24278;BMP280;12394;42.692;23.314;2022-11-10T06:24:21;95752.69;;;10.68
24278;BMP280;12394;42.692;23.314;2022-11-10T06:26:47;95756.78;;;10.62
24278;BMP280;12394;42.692;23.314;2022-11-10T06:29:12;95771.31;;;10.56
24278;BMP280;12394;42.692;23.314;2022-11-10T06:31:37;95779.50;;;10.47
24278;BMP280;12394;42.692;23.314;2022-11-10T06:34:03;95779.44;;;10.40
24278;BMP280;12394;42.692;23.314;2022-11-10T06:36:28;95777.09;;;10.24
24278;BMP280;12394;42.692;23.314;2022-11-10T06:38:53;95781.78;;;10.08
24278;BMP280;12394;42.692;23.314;2022-11-10T06:41:19;95790.28;;;9.98
24278;BMP280;12394;42.692;23.314;2022-11-10T06:43:44;95795.84;;;9.93
24278;BMP280;12394;42.692;23.314;2022-11-10T06:46:10;95799.97;;;9.94
24278;BMP280;12394;42.692;23.314;2022-11-10T06:48:35;95779.63;;;9.77
24278;BMP280;12394;42.692;23.314;2022-11-10T06:51:01;95792.06;;;9.91
24278;BMP280;12394;42.692;23.314;2022-11-10T06:53:27;95796.69;;;10.04
24278;BMP280;12394;42.692;23.314;2022-11-10T06:55:52;95792.94;;;10.05
24278;BMP280;12394;42.692;23.314;2022-11-10T06:58:18;95800.13;;;10.12
24278;BMP280;12394;42.692;23.314;2022-11-10T07:00:43;95801.03;;;10.27
24278;BMP280;12394;42.692;23.314;2022-11-10T07:03:12;95796.66;;;10.45
24278;BMP280;12394;42.692;23.314;2022-11-10T07:05:38;95797.50;;;10.63
24278;BMP280;12394;42.692;23.314;2022-11-10T07:08:09;95801.75;;;10.82
24278;BMP280;12394;42.692;23.314;2022-11-10T07:10:35;95796.78;;;11.35
24278;BMP280;12394;42.692;23.314;2022-11-10T07:13:02;95790.94;;;11.91
24278;BMP280;12394;42.692;23.314;2022-11-10T07:15:29;95801.03;;;12.81
24278;BMP280;12394;42.692;23.314;2022-11-10T07:17:54;95806.06;;;13.55
24278;BMP280;12394;42.692;23.314;2022-11-10T07:20:20;95808.94;;;14.37
24278;BMP280;12394;42.692;23.314;2022-11-10T07:22:45;95810.97;;;14.63
24278;BMP280;12394;42.692;23.314;2022-11-10T07:25:11;95798.03;;;15.13
24278;BMP280;12394;42.692;23.314;2022-11-10T07:27:36;95806.78;;;15.41
24278;BMP280;12394;42.692;23.314;2022-11-10T07:30:03;95806.41;;;15.99
24278;BMP280;12394;42.692;23.314;2022-11-10T07:32:29;95818.03;;;16.29
24278;BMP280;12394;42.692;23.314;2022-11-10T07:34:54;95817.97;;;17.02
24278;BMP280;12394;42.692;23.314;2022-11-10T07:37:20;95819.88;;;17.41
24278;BMP280;12394;42.692;23.314;2022-11-10T07:39:45;95820.06;;;17.90
24278;BMP280;12394;42.692;23.314;2022-11-10T07:42:10;95822.34;;;18.56
24278;BMP280;12394;42.692;23.314;2022-11-10T07:44:36;95816.59;;;19.31
24278;BMP280;12394;42.692;23.314;2022-11-10T07:47:01;95816.09;;;19.90
24278;BMP280;12394;42.692;23.314;2022-11-10T07:49:27;95814.41;;;20.34
24278;BMP280;12394;42.692;23.314;2022-11-10T07:51:52;95802.03;;;20.88
24278;BMP280;12394;42.692;23.314;2022-11-10T07:54:17;95815.34;;;21.44
24278;BMP280;12394;42.692;23.314;2022-11-10T07:56:43;95811.94;;;21.74
24278;BMP280;12394;42.692;23.314;2022-11-10T07:59:08;95814.00;;;22.01
24278;BMP280;12394;42.692;23.314;2022-11-10T08:01:33;95813.91;;;22.23
24278;BMP280;12394;42.692;23.314;2022-11-10T08:03:59;95802.13;;;22.51
24278;BMP280;12394;42.692;23.314;2022-11-10T08:06:24;95804.09;;;22.69
24278;BMP280;12394;42.692;23.314;2022-11-10T08:08:50;95815.53;;;22.96
24278;BMP280;12394;42.692;23.314;2022-11-10T08:11:16;95811.22;;;23.35
24278;BMP280;12394;42.692;23.314;2022-11-10T08:13:41;95811.50;;;23.56
24278;BMP280;12394;42.692;23.314;2022-11-10T08:16:07;95805.06;;;23.71
24278;BMP280;12394;42.692;23.314;2022-11-10T08:18:32;95797.03;;;23.71
24278;BMP280;12394;42.692;23.314;2022-11-10T08:21:01;95809.16;;;24.56
24278;BMP280;12394;42.692;23.314;2022-11-10T08:23:27;95814.50;;;25.18
24278;BMP280;12394;42.692;23.314;2022-11-10T08:25:59;95818.25;;;25.50
24278;BMP280;12394;42.692;23.314;2022-11-10T08:28:25;95817.56;;;25.26
24278;BMP280;12394;42.692;23.314;2022-11-10T08:30:50;95804.91;;;25.12
24278;BMP280;12394;42.692;23.314;2022-11-10T08:33:18;95819.72;;;25.81
24278;BMP280;12394;42.692;23.314;2022-11-10T08:35:45;95820.72;;;26.47
24278;BMP280;12394;42.692;23.314;2022-11-10T08:38:13;95821.44;;;26.13
24278;BMP280;12394;42.692;23.314;2022-11-10T08:40:39;95820.44;;;26.25
24278;BMP280;12394;42.692;23.314;2022-11-10T08:43:06;95814.75;;;26.38
24278;BMP280;12394;42.692;23.314;2022-11-10T08:45:33;95821.00;;;26.70
24278;BMP280;12394;42.692;23.314;2022-11-10T08:48:01;95826.25;;;26.99
24278;BMP280;12394;42.692;23.314;2022-11-10T08:50:27;95808.91;;;27.20
24278;BMP280;12394;42.692;23.314;2022-11-10T08:52:53;95816.34;;;27.57
24278;BMP280;12394;42.692;23.314;2022-11-10T08:55:18;95817.25;;;27.48
24278;BMP280;12394;42.692;23.314;2022-11-10T08:57:45;95829.44;;;28.06
24278;BMP280;12394;42.692;23.314;2022-11-10T09:00:12;95831.47;;;27.80
24278;BMP280;12394;42.692;23.314;2022-11-10T09:02:37;95825.69;;;27.61
24278;BMP280;12394;42.692;23.314;2022-11-10T09:05:03;95820.47;;;27.52
24278;BMP280;12394;42.692;23.314;2022-11-10T09:07:29;95821.31;;;28.80
24278;BMP280;12394;42.692;23.314;2022-11-10T09:09:55;95821.25;;;29.34
24278;BMP280;12394;42.692;23.314;2022-11-10T09:12:20;95826.91;;;29.41
24278;BMP280;12394;42.692;23.314;2022-11-10T09:14:45;95811.75;;;28.73
24278;BMP280;12394;42.692;23.314;2022-11-10T09:17:11;95828.28;;;29.14
24278;BMP280;12394;42.692;23.314;2022-11-10T09:19:37;95824.19;;;31.16
24278;BMP280;12394;42.692;23.314;2022-11-10T09:22:02;95816.88;;;29.70
24278;BMP280;12394;42.692;23.314;2022-11-10T09:24:28;95814.84;;;29.20
24278;BMP280;12394;42.692;23.314;2022-11-10T09:26:53;95820.47;;;29.28
24278;BMP280;12394;42.692;23.314;2022-11-10T09:29:19;95806.00;;;28.55
24278;BMP280;12394;42.692;23.314;2022-11-10T09:31:45;95797.09;;;28.86
24278;BMP280;12394;42.692;23.314;2022-11-10T09:34:11;95824.88;;;29.20
24278;BMP280;12394;42.692;23.314;2022-11-10T09:36:36;95809.16;;;29.01
24278;BMP280;12394;42.692;23.314;2022-11-10T09:39:05;95807.78;;;29.45
24278;BMP280;12394;42.692;23.314;2022-11-10T09:41:30;95801.19;;;30.07
24278;BMP280;12394;42.692;23.314;2022-11-10T09:44:12;95804.59;;;29.57
24278;BMP280;12394;42.692;23.314;2022-11-10T09:46:47;95807.56;;;29.87
24278;BMP280;12394;42.692;23.314;2022-11-10T09:49:22;95795.00;;;30.29
24278;BMP280;12394;42.692;23.314;2022-11-10T09:51:50;95798.19;;;30.27
24278;BMP280;12394;42.692;23.314;2022-11-10T09:54:36;95799.13;;;30.41
24278;BMP280;12394;42.692;23.314;2022-11-10T09:57:05;95796.53;;;29.80
24278;BMP280;12394;42.692;23.314;2022-11-10T09:59:32;95799.94;;;30.08
24278;BMP280;12394;42.692;23.314;2022-11-10T10:05:20;95798.44;;;30.24
24278;BMP280;12394;42.692;23.314;2022-11-10T10:08:04;95787.81;;;30.54
24278;BMP280;12394;42.692;23.314;2022-11-10T10:10:31;95776.31;;;31.05
24278;BMP280;12394;42.692;23.314;2022-11-10T10:24:00;95774.63;;;31.38
24278;BMP280;12394;42.692;23.314;2022-11-10T10:26:30;95785.06;;;31.22
24278;BMP280;12394;42.692;23.314;2022-11-10T10:29:01;95783.19;;;31.06
24278;BMP280;12394;42.692;23.314;2022-11-10T10:31:37;95778.28;;;31.40
24278;BMP280;12394;42.692;23.314;2022-11-10T10:34:12;95782.59;;;30.67
24278;BMP280;12394;42.692;23.314;2022-11-10T10:36:38;95782.22;;;30.35
24278;BMP280;12394;42.692;23.314;2022-11-10T10:39:12;95778.97;;;30.59
24278;BMP280;12394;42.692;23.314;2022-11-10T10:41:39;95779.19;;;30.66
24278;BMP280;12394;42.692;23.314;2022-11-10T10:44:14;95777.91;;;29.93
24278;BMP280;12394;42.692;23.314;2022-11-10T10:46:48;95765.38;;;29.51
24278;BMP280;12394;42.692;23.314;2022-11-10T10:51:49;95765.56;;;29.20
24278;BMP280;12394;42.692;23.314;2022-11-10T10:57:03;95762.66;;;27.42
24278;BMP280;12394;42.692;23.314;2022-11-10T10:59:30;95755.25;;;27.31
24278;BMP280;12394;42.692;23.314;2022-11-10T11:01:56;95757.47;;;27.07
24278;BMP280;12394;42.692;23.314;2022-11-10T11:04:39;95738.31;;;25.98
24278;BMP280;12394;42.692;23.314;2022-11-10T11:07:24;95748.69;;;25.91
24278;BMP280;12394;42.692;23.314;2022-11-10T11:09:50;95734.72;;;25.37
24278;BMP280;12394;42.692;23.314;2022-11-10T11:14:46;95730.19;;;24.61
24278;BMP280;12394;42.692;23.314;2022-11-10T11:17:21;95738.50;;;24.15
24278;BMP280;12394;42.692;23.314;2022-11-10T11:19:48;95736.56;;;23.50
24278;BMP280;12394;42.692;23.314;2022-11-10T11:25:35;95734.88;;;22.56
24278;BMP280;12394;42.692;23.314;2022-11-10T11:33:39;95708.75;;;21.65
24278;BMP280;12394;42.692;23.314;2022-11-10T11:41:23;95707.00;;;20.88
24278;BMP280;12394;42.692;23.314;2022-11-10T11:43:58;95715.41;;;20.65
24278;BMP280;12394;42.692;23.314;2022-11-10T11:54:26;95695.97;;;19.48
24278;BMP280;12394;42.692;23.314;2022-11-10T11:56:59;95710.81;;;19.59
24278;BMP280;12394;42.692;23.314;2022-11-10T11:59:42;95708.38;;;19.51
24278;BMP280;12394;42.692;23.314;2022-11-10T12:08:21;95715.97;;;19.24
24278;BMP280;12394;42.692;23.314;2022-11-10T12:13:46;95715.38;;;18.91
24278;BMP280;12394;42.692;23.314;2022-11-10T12:19:17;95715.84;;;18.74
24278;BMP280;12394;42.692;23.314;2022-11-10T12:21:54;95715.66;;;18.81
24278;BMP280;12394;42.692;23.314;2022-11-10T12:27:04;95711.47;;;18.67
24278;BMP280;12394;42.692;23.314;2022-11-10T12:32:16;95705.78;;;18.52
24278;BMP280;12394;42.692;23.314;2022-11-10T12:34:52;95712.09;;;18.42
24278;BMP280;12394;42.692;23.314;2022-11-10T12:37:31;95707.56;;;18.27
24278;BMP280;12394;42.692;23.314;2022-11-10T12:40:21;95702.88;;;18.18
24278;BMP280;12394;42.692;23.314;2022-11-10T12:42:54;95708.00;;;18.25
24278;BMP280;12394;42.692;23.314;2022-11-10T12:45:26;95708.00;;;18.25
24278;BMP280;12394;42.692;23.314;2022-11-10T12:47:54;95714.94;;;18.19
24278;BMP280;12394;42.692;23.314;2022-11-10T12:53:14;95709.00;;;18.15
24278;BMP280;12394;42.692;23.314;2022-11-10T12:55:47;95714.13;;;18.22
24278;BMP280;12394;42.692;23.314;2022-11-10T12:58:14;95715.19;;;18.08
24278;BMP280;12394;42.692;23.314;2022-11-10T13:00:54;95702.22;;;17.98
24278;BMP280;12394;42.692;23.314;2022-11-10T13:03:31;95711.59;;;18.02
24278;BMP280;12394;42.692;23.314;2022-11-10T13:06:03;95725.53;;;18.19
24278;BMP280;12394;42.692;23.314;2022-11-10T13:08:35;95724.06;;;18.02
24278;BMP280;12394;42.692;23.314;2022-11-10T13:13:44;95722.91;;;17.87
24278;BMP280;12394;42.692;23.314;2022-11-10T13:24:31;95729.09;;;17.64
24278;BMP280;12394;42.692;23.314;2022-11-10T13:27:01;95719.13;;;17.71
24278;BMP280;12394;42.692;23.314;2022-11-10T13:34:34;95721.31;;;17.37
24278;BMP280;12394;42.692;23.314;2022-11-10T13:37:01;95720.50;;;17.40
24278;BMP280;12394;42.692;23.314;2022-11-10T13:39:31;95722.72;;;17.25
24278;BMP280;12394;42.692;23.314;2022-11-10T13:44:34;95721.97;;;17.25
24278;BMP280;12394;42.692;23.314;2022-11-10T13:52:14;95713.13;;;17.31
24278;BMP280;12394;42.692;23.314;2022-11-10T13:57:38;95727.25;;;17.25
24278;BMP280;12394;42.692;23.314;2022-11-10T14:02:44;95723.31;;;17.13
24278;BMP280;12394;42.692;23.314;2022-11-10T14:08:05;95731.97;;;16.98
24278;BMP280;12394;42.692;23.314;2022-11-10T14:10:59;95730.66;;;16.86
24278;BMP280;12394;42.692;23.314;2022-11-10T14:13:45;95740.56;;;16.82
24278;BMP280;12394;42.692;23.314;2022-11-10T14:16:39;95745.91;;;16.78
24278;BMP280;12394;42.692;23.314;2022-11-10T14:22:07;95739.41;;;16.83
24278;BMP280;12394;42.692;23.314;2022-11-10T14:24:41;95731.81;;;16.85
24278;BMP280;12394;42.692;23.314;2022-11-10T14:27:22;95729.84;;;16.89
24278;BMP280;12394;42.692;23.314;2022-11-10T14:29:48;95739.66;;;16.69
24278;BMP280;12394;42.692;23.314;2022-11-10T14:32:19;95726.00;;;16.51
24278;BMP280;12394;42.692;23.314;2022-11-10T14:34:47;95742.44;;;16.62
24278;BMP280;12394;42.692;23.314;2022-11-10T14:37:20;95739.28;;;16.70
24278;BMP280;12394;42.692;23.314;2022-11-10T14:39:52;95747.06;;;16.77
24278;BMP280;12394;42.692;23.314;2022-11-10T14:42:21;95734.97;;;16.57
24278;BMP280;12394;42.692;23.314;2022-11-10T14:44:47;95748.56;;;16.55
24278;BMP280;12394;42.692;23.314;2022-11-10T14:50:06;95728.72;;;16.24
24278;BMP280;12394;42.692;23.314;2022-11-10T14:52:37;95743.88;;;16.20
24278;BMP280;12394;42.692;23.314;2022-11-10T14:55:09;95740.31;;;16.07
24278;BMP280;12394;42.692;23.314;2022-11-10T14:57:38;95754.31;;;16.03
24278;BMP280;12394;42.692;23.314;2022-11-10T15:00:12;95755.47;;;16.02
24278;BMP280;12394;42.692;23.314;2022-11-10T15:02:39;95736.22;;;15.79
24278;BMP280;12394;42.692;23.314;2022-11-10T15:05:05;95759.91;;;15.82
24278;BMP280;12394;42.692;23.314;2022-11-10T15:07:33;95752.69;;;15.86
24278;BMP280;12394;42.692;23.314;2022-11-10T15:12:36;95755.63;;;15.92
24278;BMP280;12394;42.692;23.314;2022-11-10T15:15:13;95776.38;;;15.90
24278;BMP280;12394;42.692;23.314;2022-11-10T15:17:47;95765.63;;;15.77
24278;BMP280;12394;42.692;23.314;2022-11-10T15:20:36;95784.16;;;15.74
24278;BMP280;12394;42.692;23.314;2022-11-10T15:23:04;95776.38;;;15.63
24278;BMP280;12394;42.692;23.314;2022-11-10T15:25:35;95784.28;;;15.63
24278;BMP280;12394;42.692;23.314;2022-11-10T15:30:36;95789.31;;;15.54
24278;BMP280;12394;42.692;23.314;2022-11-10T15:33:07;95793.84;;;15.53
24278;BMP280;12394;42.692;23.314;2022-11-10T15:35:33;95797.78;;;15.38
24278;BMP280;12394;42.692;23.314;2022-11-10T15:45:51;95811.50;;;15.23
24278;BMP280;12394;42.692;23.314;2022-11-10T15:48:19;95799.91;;;15.17
24278;BMP280;12394;42.692;23.314;2022-11-10T15:50:46;95804.13;;;15.10
24278;BMP280;12394;42.692;23.314;2022-11-10T15:53:15;95808.69;;;15.06
24278;BMP280;12394;42.692;23.314;2022-11-10T15:55:43;95795.28;;;14.90
24278;BMP280;12394;42.692;23.314;2022-11-10T15:58:16;95812.97;;;14.93
24278;BMP280;12394;42.692;23.314;2022-11-10T16:00:42;95806.66;;;14.84
24278;BMP280;12394;42.692;23.314;2022-11-10T16:03:12;95811.97;;;14.80
24278;BMP280;12394;42.692;23.314;2022-11-10T16:05:38;95799.75;;;14.56
24278;BMP280;12394;42.692;23.314;2022-11-10T16:08:13;95814.25;;;14.30
24278;BMP280;12394;42.692;23.314;2022-11-10T16:10:40;95821.72;;;14.32
24278;BMP280;12394;42.692;23.314;2022-11-10T16:13:09;95822.09;;;14.37
24278;BMP280;12394;42.692;23.314;2022-11-10T16:15:37;95825.69;;;14.06
24278;BMP280;12394;42.692;23.314;2022-11-10T16:18:03;95830.69;;;13.86
24278;BMP280;12394;42.692;23.314;2022-11-10T16:20:28;95838.97;;;13.81
24278;BMP280;12394;42.692;23.314;2022-11-10T16:22:54;95812.00;;;13.63
24278;BMP280;12394;42.692;23.314;2022-11-10T16:25:19;95831.56;;;13.65
24278;BMP280;12394;42.692;23.314;2022-11-10T16:27:45;95833.72;;;13.81
24278;BMP280;12394;42.692;23.314;2022-11-10T16:30:14;95844.25;;;13.85
24278;BMP280;12394;42.692;23.314;2022-11-10T16:32:39;95842.75;;;13.80
24278;BMP280;12394;42.692;23.314;2022-11-10T16:35:05;95838.28;;;13.70
24278;BMP280;12394;42.692;23.314;2022-11-10T16:37:30;95843.94;;;13.68
24278;BMP280;12394;42.692;23.314;2022-11-10T16:39:55;95849.97;;;13.58
24278;BMP280;12394;42.692;23.314;2022-11-10T16:42:21;95854.19;;;13.42
24278;BMP280;12394;42.692;23.314;2022-11-10T16:44:46;95847.44;;;13.37
24278;BMP280;12394;42.692;23.314;2022-11-10T16:47:17;95850.44;;;13.35
24278;BMP280;12394;42.692;23.314;2022-11-10T16:49:43;95856.84;;;13.34
24278;BMP280;12394;42.692;23.314;2022-11-10T16:52:14;95852.34;;;13.28
24278;BMP280;12394;42.692;23.314;2022-11-10T16:54:40;95853.47;;;13.27
24278;BMP280;12394;42.692;23.314;2022-11-10T16:57:13;95859.16;;;12.93
24278;BMP280;12394;42.692;23.314;2022-11-10T16:59:38;95868.53;;;12.77
24278;BMP280;12394;42.692;23.314;2022-11-10T17:02:14;95868.56;;;12.84
24278;BMP280;12394;42.692;23.314;2022-11-10T17:04:46;95850.56;;;12.75
24278;BMP280;12394;42.692;23.314;2022-11-10T17:07:12;95877.94;;;12.64
24278;BMP280;12394;42.692;23.314;2022-11-10T17:09:38;95877.19;;;12.42
24278;BMP280;12394;42.692;23.314;2022-11-10T17:12:04;95883.19;;;12.39
24278;BMP280;12394;42.692;23.314;2022-11-10T17:14:29;95892.56;;;12.54
24278;BMP280;12394;42.692;23.314;2022-11-10T17:16:55;95887.31;;;12.65
24278;BMP280;12394;42.692;23.314;2022-11-10T17:19:23;95874.56;;;12.53
24278;BMP280;12394;42.692;23.314;2022-11-10T17:21:51;95886.19;;;12.62
24278;BMP280;12394;42.692;23.314;2022-11-10T17:24:18;95891.06;;;12.57
24278;BMP280;12394;42.692;23.314;2022-11-10T17:26:44;95893.31;;;12.51
24278;BMP280;12394;42.692;23.314;2022-11-10T17:29:17;95879.41;;;12.36
24278;BMP280;12394;42.692;23.314;2022-11-10T17:31:43;95879.41;;;12.22
24278;BMP280;12394;42.692;23.314;2022-11-10T17:34:09;95884.66;;;12.22
24278;BMP280;12394;42.692;23.314;2022-11-10T17:36:34;95892.50;;;12.19
24278;BMP280;12394;42.692;23.314;2022-11-10T17:39:00;95900.75;;;12.03
24278;BMP280;12394;42.692;23.314;2022-11-10T17:41:25;95902.97;;;11.94
24278;BMP280;12394;42.692;23.314;2022-11-10T17:43:51;95901.50;;;12.07
24278;BMP280;12394;42.692;23.314;2022-11-10T17:46:16;95903.38;;;12.03
24278;BMP280;12394;42.692;23.314;2022-11-10T17:48:42;95899.22;;;12.02
24278;BMP280;12394;42.692;23.314;2022-11-10T17:51:25;95886.44;;;11.79
24278;BMP280;12394;42.692;23.314;2022-11-10T17:53:50;95894.63;;;11.71
24278;BMP280;12394;42.692;23.314;2022-11-10T17:56:17;95902.44;;;11.64
24278;BMP280;12394;42.692;23.314;2022-11-10T17:58:43;95855.88;;;11.32
24278;BMP280;12394;42.692;23.314;2022-11-10T18:01:18;95907.66;;;11.60
24278;BMP280;12394;42.692;23.314;2022-11-10T18:03:45;95908.75;;;11.55
24278;BMP280;12394;42.692;23.314;2022-11-10T18:06:12;95898.22;;;11.45
24278;BMP280;12394;42.692;23.314;2022-11-10T18:08:38;95915.13;;;11.54
24278;BMP280;12394;42.692;23.314;2022-11-10T18:11:03;95917.75;;;11.54
24278;BMP280;12394;42.692;23.314;2022-11-10T18:13:28;95919.25;;;11.55
24278;BMP280;12394;42.692;23.314;2022-11-10T18:15:56;95917.38;;;11.52
24278;BMP280;12394;42.692;23.314;2022-11-10T18:18:22;95920.75;;;11.53
24278;BMP280;12394;42.692;23.314;2022-11-10T18:20:48;95924.47;;;11.52
24278;BMP280;12394;42.692;23.314;2022-11-10T18:23:13;95931.19;;;11.49
24278;BMP280;12394;42.692;23.314;2022-11-10T18:25:40;95929.31;;;11.46
24278;BMP280;12394;42.692;23.314;2022-11-10T18:28:06;95928.94;;;11.44
24278;BMP280;12394;42.692;23.314;2022-11-10T18:30:32;95938.28;;;11.42